Time;durP1;ratioP1;P1;durP2;ratioP2;P2;SDS_P1;SDS_P2;PMS_P1;PMS_P2;Temp;Humidity;BMP_temperature;BMP_pressure;BME280_temperature;BME280_humidity;BME280_pressure;Samples;Min_cycle;Max_cycle;Signal;HPM_P1;HPM_P2
2023/06/01 07:58:10;;;;;;;;;;;;;;;8.12;100.00;99856.56;6157024;23;19943;-91
2023/06/01 08:00:35;;;;;;;;;;;;;;;8.08;100.00;99851.41;6185292;23;19920;-91
2023/06/01 08:03:05;;;;;;;;;;;;;;;8.09;100.00;99847.84;6159507;23;19919;-92
2023/06/01 08:05:32;;;;;;;;;;;;;;;8.02;100.00;99852.47;6159319;23;19922;-91
2023/06/01 08:07:59;;;;;;;;;;;;;;;8.03;100.00;99848.91;6185602;23;19934;-92
2023/06/01 08:10:24;;;;;;;;;;;;;;;8.07;100.00;99841.75;6161266;23;19913;-93
2023/06/01 08:12:57;;;;;;;;;;;;;;;12.85;100.00;99828.25;6183914;23;20279;-92
2023/06/01 08:15:23;;;;;;;;;;;;;;;7.90;100.00;99837.88;6186963;23;19955;-92
2023/06/01 08:17:51;;;;;;;;;;;;;;;6.80;100.00;99841.94;6159192;23;19912;-91
2023/06/01 08:20:21;;;;;;;;;;;;;;;6.32;100.00;99846.63;6159891;23;20320;-92
2023/06/01 08:22:47;;;;;;;;;;;;;;;6.02;100.00;99845.59;6159605;23;19920;-91
2023/06/01 08:25:22;;;;;;;;;;;;;;;;;;;;;
2023/06/01 08:27:49;;;;;;;;;;;;;;;5.73;100.00;99840.97;6185231;23;20053;-89
2023/06/01 08:30:17;;;;;;;;;;;;;;;5.64;100.00;99844.66;6160865;23;20346;-94
2023/06/01 08:32:48;;;;;;;;;;;;;;;5.64;100.00;99842.03;6160767;23;19950;-91
2023/06/01 08:35:26;;;;;;;;;;;;;;;;;;;;;
2023/06/01 08:38:12;;;;;;;;;;;;;;;5.45;100.00;99831.03;6187605;23;20392;-92
2023/06/01 08:40:45;;;;;;;;;;;;;;;5.37;100.00;99832.97;6160425;23;20316;-92
2023/06/01 08:43:25;;;;;;;;;;;;;;;5.45;100.00;99825.78;6159653;23;19916;-93
2023/06/01 08:45:53;;;;;;;;;;;;;;;5.39;100.00;99826.78;6160805;23;20260;-93
2023/06/01 08:48:30;;;;;;;;;;;;;;;5.48;100.00;99836.22;6160825;23;19970;-92
2023/06/01 08:51:13;;;;;;;;;;;;;;;5.29;100.00;99825.22;6160580;23;19912;-92
2023/06/01 08:53:43;;;;;;;;;;;;;;;5.26;100.00;99823.56;6160589;23;19920;-92
2023/06/01 08:56:19;;;;;;;;;;;;;;;5.37;100.00;99819.81;6162490;23;20241;-94
2023/06/01 08:58:49;;;;;;;;;;;;;;;5.32;100.00;99812.03;6162345;23;19923;-93
2023/06/01 09:01:41;;;;;;;;;;;;;;;;;;;;;
2023/06/01 09:04:17;;;;;;;;;;;;;;;5.30;100.00;99810.31;6189660;23;20011;-92
2023/06/01 09:06:55;;;;;;;;;;;;;;;;;;;;;
2023/06/01 09:09:21;;;;;;;;;;;;;;;5.26;100.00;99815.66;6188521;23;19995;-89
2023/06/01 09:12:09;;;;;;;;;;;;;;;5.68;100.00;99808.63;6160824;23;19966;-91
2023/06/01 09:14:35;;;;;;;;;;;;;;;5.99;100.00;99811.47;6186582;23;19979;-90
2023/06/01 09:17:00;;;;;;;;;;;;;;;6.18;100.00;99802.22;6161091;23;20320;-92
2023/06/01 09:19:40;;;;;;;;;;;;;;;6.25;100.00;99812.59;6160284;23;19913;-91
2023/06/01 09:22:06;;;;;;;;;;;;;;;6.31;100.00;99808.03;6186399;23;19912;-90
2023/06/01 09:24:33;;;;;;;;;;;;;;;6.39;100.00;99801.75;6160432;23;20343;-92
2023/06/01 09:27:02;;;;;;;;;;;;;;;6.55;100.00;99808.31;6159149;23;19912;-92
2023/06/01 09:29:38;;;;;;;;;;;;;;;6.46;100.00;99801.53;6161094;23;19912;-93
2023/06/01 09:32:07;;;;;;;;;;;;;;;6.56;100.00;99796.91;6161411;23;20025;-93
2023/06/01 09:34:46;;;;;;;;;;;;;;;6.63;100.00;99797.59;6161452;23;20004;-92
2023/06/01 09:37:12;;;;;;;;;;;;;;;6.59;100.00;99801.19;6161544;23;19913;-89
2023/06/01 09:39:38;;;;;;;;;;;;;;;6.67;100.00;99793.97;6187414;23;20444;-88
2023/06/01 09:42:08;;;;;;;;;;;;;;;6.79;100.00;99798.06;6186406;23;19920;-95
2023/06/01 09:44:43;;;;;;;;;;;;;;;6.73;100.00;99799.94;6124389;23;19924;-90
2023/06/01 09:47:13;;;;;;;;;;;;;;;6.73;100.00;99789.41;6124980;23;19924;-94
2023/06/01 09:49:39;;;;;;;;;;;;;;;6.74;100.00;99787.63;6125153;23;19917;-89
2023/06/01 09:52:04;;;;;;;;;;;;;;;7.12;100.00;99804.16;6124921;23;20372;-93
2023/06/01 09:54:31;;;;;;;;;;;;;;;6.81;100.00;99790.97;6101494;23;20004;-91
2023/06/01 10:00:01;;;;;;;;;;;;;;;6.74;100.00;99798.19;6176930;23;19943;-91
2023/06/01 10:02:32;;;;;;;;;;;;;;;6.70;100.00;99784.22;6160561;23;19983;-92
2023/06/01 10:05:02;;;;;;;;;;;;;;;6.79;100.00;99787.53;6160863;23;19912;-91
2023/06/01 10:07:38;;;;;;;;;;;;;;;6.75;100.00;99791.13;6161268;23;19995;-93
2023/06/01 10:10:04;;;;;;;;;;;;;;;6.73;100.00;99796.44;6160711;23;20291;-92
2023/06/01 10:12:31;;;;;;;;;;;;;;;6.79;100.00;99793.63;6158908;23;19912;-92
2023/06/01 10:14:56;;;;;;;;;;;;;;;6.76;100.00;99782.34;6160705;23;20332;-89
2023/06/01 10:17:42;;;;;;;;;;;;;;;;;;;;;
2023/06/01 10:20:09;;;;;;;;;;;;;;;6.94;100.00;99779.19;6186635;23;20307;-93
2023/06/01 10:22:35;;;;;;;;;;;;;;;6.73;100.00;99778.88;6159991;23;19918;-93
2023/06/01 10:25:10;;;;;;;;;;;;;;;6.85;100.00;99788.22;6187433;23;19936;-94
2023/06/01 10:27:38;;;;;;;;;;;;;;;6.88;100.00;99785.50;6160287;23;20173;-95
2023/06/01 10:30:19;;;;;;;;;;;;;;;;;;;;;
2023/06/01 10:32:56;;;;;;;;;;;;;;;6.94;100.00;99773.06;6189954;23;19952;-94
2023/06/01 10:35:38;;;;;;;;;;;;;;;;;;;;;
2023/06/01 10:38:16;;;;;;;;;;;;;;;;;;;;;
2023/06/01 10:40:43;;;;;;;;;;;;;;;6.86;100.00;99768.00;6188051;23;19987;-95
2023/06/01 10:43:46;;;;;;;;;;;;;;;6.83;100.00;99770.72;6160383;23;19912;-94
2023/06/01 10:46:38;;;;;;;;;;;;;;;6.90;100.00;99769.66;6106272;23;19912;-93
2023/06/01 10:49:23;;;;;;;;;;;;;;;6.90;100.00;99764.38;6156703;23;20328;-94
2023/06/01 10:52:10;;;;;;;;;;;;;;;6.93;100.00;99769.56;6185501;23;19923;-95
2023/06/01 10:54:39;;;;;;;;;;;;;;;6.87;100.00;99759.19;6159362;23;19913;-93
2023/06/01 10:57:22;;;;;;;;;;;;;;;6.87;100.00;99754.78;6159424;23;19959;-93
2023/06/01 11:00:15;;;;;;;;;;;;;;;6.86;100.00;99752.19;6160667;23;19920;-92
2023/06/01 11:03:04;;;;;;;;;;;;;;;6.84;100.00;99743.47;6159915;23;20247;-92
2023/06/01 11:05:38;;;;;;;;;;;;;;;6.86;100.00;99742.53;6161321;23;19916;-90
2023/06/01 11:08:21;;;;;;;;;;;;;;;7.00;100.00;99747.38;6161081;23;19966;-94
2023/06/01 11:10:55;;;;;;;;;;;;;;;7.16;100.00;99747.81;6187028;23;19966;-93
2023/06/01 11:13:39;;;;;;;;;;;;;;;6.94;100.00;99749.34;6159565;23;19922;-92
2023/06/01 11:16:07;;;;;;;;;;;;;;;7.06;100.00;99755.13;6159889;23;19912;-93
2023/06/01 11:18:49;;;;;;;;;;;;;;;7.01;100.00;99741.22;6160067;23;20344;-93
2023/06/01 11:21:24;;;;;;;;;;;;;;;6.96;100.00;99747.56;6160251;23;19990;-93
2023/06/01 11:23:56;;;;;;;;;;;;;;;6.99;100.00;99740.41;6160116;23;20313;-94
2023/06/01 11:26:24;;;;;;;;;;;;;;;6.93;100.00;99739.72;6159815;23;20006;-90
2023/06/01 11:28:50;;;;;;;;;;;;;;;6.99;100.00;99737.78;6158494;23;19913;-93
2023/06/01 11:31:25;;;;;;;;;;;;;;;6.98;100.00;99746.56;6160351;23;19912;-94
2023/06/01 11:33:56;;;;;;;;;;;;;;;6.91;100.00;99737.13;6160250;23;19920;-93
2023/06/01 11:36:25;;;;;;;;;;;;;;;7.05;100.00;99723.53;6160202;23;20392;-92
2023/06/01 11:38:51;;;;;;;;;;;;;;;7.01;100.00;99735.94;6161381;23;20376;-93
2023/06/01 11:41:16;;;;;;;;;;;;;;;6.92;100.00;99730.94;6159902;23;20002;-94
2023/06/01 11:43:44;;;;;;;;;;;;;;;7.00;100.00;99717.56;6158167;23;20240;-94
2023/06/01 11:46:12;;;;;;;;;;;;;;;6.95;100.00;99720.31;6159314;23;19913;-91
2023/06/01 11:48:37;;;;;;;;;;;;;;;6.89;100.00;99716.13;6159759;23;19913;-93
2023/06/01 11:51:03;;;;;;;;;;;;;;;7.01;100.00;99712.25;6159144;23;19916;-93
2023/06/01 11:53:30;;;;;;;;;;;;;;;7.01;100.00;99714.88;6158993;23;19966;-93
2023/06/01 11:55:56;;;;;;;;;;;;;;;6.80;100.00;99716.38;6153084;23;19936;-94
2023/06/01 11:58:25;;;;;;;;;;;;;;;6.84;100.00;99711.88;6158347;23;19919;-93
2023/06/01 12:00:51;;;;;;;;;;;;;;;6.84;100.00;99702.19;6159013;23;19916;-92
2023/06/01 12:03:17;;;;;;;;;;;;;;;6.89;100.00;99704.69;6159164;23;19923;-94
2023/06/01 12:05:48;;;;;;;;;;;;;;;6.83;100.00;99703.13;6159274;23;20003;-92
2023/06/01 12:08:25;;;;;;;;;;;;;;;6.83;100.00;99699.59;6186844;23;19939;-91
2023/06/01 12:10:52;;;;;;;;;;;;;;;6.79;100.00;99706.72;6159560;23;19912;-93
2023/06/01 12:13:18;;;;;;;;;;;;;;;6.80;100.00;99699.72;6157997;23;19913;-93
2023/06/01 12:15:44;;;;;;;;;;;;;;;6.77;100.00;99689.25;6159529;23;19928;-92
2023/06/01 12:18:10;;;;;;;;;;;;;;;6.75;100.00;99683.16;6160035;23;19920;-93
2023/06/01 12:20:41;;;;;;;;;;;;;;;6.77;100.00;99689.25;6159837;23;20256;-92
2023/06/01 12:23:16;;;;;;;;;;;;;;;6.76;100.00;99687.53;6160331;23;19916;-94
2023/06/01 12:25:58;;;;;;;;;;;;;;;6.78;100.00;99688.34;6186324;23;19919;-90
2023/06/01 12:28:39;;;;;;;;;;;;;;;6.75;100.00;99686.69;6157593;23;19995;-92
2023/06/01 12:31:13;;;;;;;;;;;;;;;6.79;100.00;99682.19;6142298;23;20376;-93
2023/06/01 12:33:39;;;;;;;;;;;;;;;6.79;100.00;99676.91;6161680;23;19999;-92
2023/06/01 12:36:06;;;;;;;;;;;;;;;6.78;100.00;99680.44;6187854;23;19919;-91
2023/06/01 12:38:35;;;;;;;;;;;;;;;6.83;100.00;99683.78;6188489;23;19996;-93
2023/06/01 12:41:07;;;;;;;;;;;;;;;6.84;100.00;99681.13;6161528;23;19912;-93
2023/06/01 12:43:33;;;;;;;;;;;;;;;6.84;100.00;99669.72;6159585;23;19916;-94
2023/06/01 12:45:59;;;;;;;;;;;;;;;6.81;100.00;99667.19;6161252;23;19917;-94
2023/06/01 12:48:34;;;;;;;;;;;;;;;6.86;100.00;99668.78;6161559;23;20240;-89
2023/06/01 12:51:00;;;;;;;;;;;;;;;6.85;100.00;99669.69;6187570;23;19915;-93
2023/06/01 12:53:26;;;;;;;;;;;;;;;6.88;100.00;99663.47;6161619;23;19944;-93
2023/06/01 12:55:51;;;;;;;;;;;;;;;6.84;100.00;99661.81;6161007;23;19908;-94
2023/06/01 12:58:16;;;;;;;;;;;;;;;6.83;100.00;99657.47;6159472;23;19916;-93
2023/06/01 13:00:42;;;;;;;;;;;;;;;6.80;100.00;99653.16;6161210;23;19974;-93
2023/06/01 13:03:07;;;;;;;;;;;;;;;6.81;100.00;99648.75;6161242;23;19999;-93
2023/06/01 13:05:33;;;;;;;;;;;;;;;6.81;100.00;99644.38;6161692;23;20339;-94
2023/06/01 13:07:59;;;;;;;;;;;;;;;6.82;100.00;99653.13;6160759;23;19931;-93
2023/06/01 13:10:24;;;;;;;;;;;;;;;6.85;100.00;99645.97;6160292;23;19947;-93
2023/06/01 13:12:50;;;;;;;;;;;;;;;6.83;100.00;99657.47;6158783;23;19912;-93
2023/06/01 13:15:15;;;;;;;;;;;;;;;6.84;100.00;99641.59;6161829;23;20331;-93
2023/06/01 13:17:41;;;;;;;;;;;;;;;6.81;100.00;99649.63;6161467;23;19916;-94
2023/06/01 13:20:07;;;;;;;;;;;;;;;6.77;100.00;99644.50;6161568;23;19912;-93
2023/06/01 13:22:32;;;;;;;;;;;;;;;6.81;100.00;99648.75;6160676;23;20154;-93
2023/06/01 13:24:57;;;;;;;;;;;;;;;6.83;100.00;99652.19;6161691;23;19920;-90
2023/06/01 13:27:23;;;;;;;;;;;;;;;6.81;100.00;99648.75;6160029;23;20271;-92
2023/06/01 13:29:48;;;;;;;;;;;;;;;6.83;100.00;99639.03;6160670;23;20266;-94
2023/06/01 13:32:13;;;;;;;;;;;;;;;6.83;100.00;99646.91;6160909;23;20386;-94
2023/06/01 13:34:39;;;;;;;;;;;;;;;6.84;100.00;99632.84;6161047;23;19923;-91
2023/06/01 13:37:04;;;;;;;;;;;;;;;6.84;100.00;99635.50;6160958;23;19935;-95
2023/06/01 13:39:29;;;;;;;;;;;;;;;6.90;100.00;99640.56;6160704;23;19923;-92
2023/06/01 13:41:55;;;;;;;;;;;;;;;6.88;100.00;99629.22;6159590;23;19912;-93
2023/06/01 13:44:20;;;;;;;;;;;;;;;6.82;100.00;99632.03;6160270;23;19923;-93
2023/06/01 13:46:46;;;;;;;;;;;;;;;6.81;100.00;99619.78;6161441;23;19912;-93
2023/06/01 13:49:11;;;;;;;;;;;;;;;6.81;100.00;99619.78;6164632;23;19921;-90
2023/06/01 13:51:39;;;;;;;;;;;;;;;6.79;100.00;99618.97;6161268;23;19912;-93
2023/06/01 13:54:05;;;;;;;;;;;;;;;6.84;100.00;99628.44;6161667;23;19919;-93
2023/06/01 13:56:30;;;;;;;;;;;;;;;6.85;100.00;99619.63;6187610;23;19998;-93
2023/06/01 13:58:56;;;;;;;;;;;;;;;6.77;100.00;99608.47;6159908;23;19958;-95
2023/06/01 14:01:21;;;;;;;;;;;;;;;6.79;100.00;99597.91;6161784;23;20378;-94
2023/06/01 14:03:56;;;;;;;;;;;;;;;6.77;100.00;99611.13;6160256;23;20236;-92
2023/06/01 14:06:22;;;;;;;;;;;;;;;6.82;100.00;99605.72;6160615;23;20272;-94
2023/06/01 14:08:48;;;;;;;;;;;;;;;6.85;100.00;99603.00;6160579;23;20035;-94
2023/06/01 14:11:13;;;;;;;;;;;;;;;6.86;100.00;99610.84;6186449;23;19912;-92
2023/06/01 14:13:41;;;;;;;;;;;;;;;6.82;100.00;99608.34;6158521;23;20244;-94
2023/06/01 14:16:06;;;;;;;;;;;;;;;6.81;100.00;99599.59;6186163;23;19991;-93
2023/06/01 14:18:32;;;;;;;;;;;;;;;6.84;100.00;99603.88;6160871;23;19966;-93
2023/06/01 14:20:59;;;;;;;;;;;;;;;6.82;100.00;99603.94;6160205;23;19912;-94
2023/06/01 14:23:24;;;;;;;;;;;;;;;6.82;100.00;99603.06;6160360;23;19912;-93
2023/06/01 14:25:50;;;;;;;;;;;;;;;6.81;100.00;99593.44;6159831;23;19958;-94
2023/06/01 14:28:18;;;;;;;;;;;;;;;6.88;100.00;99600.25;6159381;23;19913;-94
2023/06/01 14:30:43;;;;;;;;;;;;;;;6.82;100.00;99587.28;6161608;23;19927;-90
2023/06/01 14:33:18;;;;;;;;;;;;;;;6.82;100.00;99582.00;6187160;23;20263;-94
2023/06/01 14:35:56;;;;;;;;;;;;;;;;;;;;;
2023/06/01 14:38:26;;;;;;;;;;;;;;;6.79;100.00;99576.84;6187604;23;19984;-94
2023/06/01 14:40:59;;;;;;;;;;;;;;;6.75;100.00;99575.19;6161475;23;20340;-93
2023/06/01 14:43:29;;;;;;;;;;;;;;;6.80;100.00;99579.41;6159990;23;20291;-92
2023/06/01 14:45:55;;;;;;;;;;;;;;;6.75;100.00;99570.81;6161347;23;19970;-90
2023/06/01 14:48:41;;;;;;;;;;;;;;;6.76;100.00;99576.94;6186575;23;19912;-92
2023/06/01 14:51:13;;;;;;;;;;;;;;;6.77;100.00;99562.88;6185517;23;19908;-92
2023/06/01 14:53:41;;;;;;;;;;;;;;;6.81;100.00;99567.09;6161438;23;19939;-91
2023/06/01 14:56:21;;;;;;;;;;;;;;;6.83;100.00;99558.25;6189315;23;19918;-93
2023/06/01 14:58:49;;;;;;;;;;;;;;;6.80;100.00;99557.50;6159227;23;19935;-93
2023/06/01 15:01:16;;;;;;;;;;;;;;;6.77;100.00;99558.44;6160396;23;19916;-94
2023/06/01 15:03:42;;;;;;;;;;;;;;;6.76;100.00;99547.97;6160841;23;19931;-93
2023/06/01 15:06:07;;;;;;;;;;;;;;;6.78;100.00;99546.13;6160799;23;19923;-93
2023/06/01 15:08:35;;;;;;;;;;;;;;;6.82;100.00;99547.78;6161129;23;19918;-93
2023/06/01 15:11:00;;;;;;;;;;;;;;;6.94;100.00;99549.16;6160819;23;19912;-94
2023/06/01 15:13:33;;;;;;;;;;;;;;;6.86;100.00;99544.13;6159111;23;19963;-94
2023/06/01 15:15:58;;;;;;;;;;;;;;;6.83;100.00;99541.56;6160635;23;19919;-90
2023/06/01 15:18:26;;;;;;;;;;;;;;;6.82;100.00;99540.72;6161076;23;19912;-94
2023/06/01 15:21:05;;;;;;;;;;;;;;;6.77;100.00;99526.00;6161189;23;19912;-94
2023/06/01 15:23:38;;;;;;;;;;;;;;;6.81;100.00;99539.03;6161203;23;19994;-95
2023/06/01 15:26:04;;;;;;;;;;;;;;;6.84;100.00;99541.53;6161293;23;19916;-94
2023/06/01 15:28:36;;;;;;;;;;;;;;;6.83;100.00;99547.72;6159661;23;20354;-93
2023/06/01 15:31:02;;;;;;;;;;;;;;;6.88;100.00;99544.94;6162085;23;19923;-92
2023/06/01 15:33:27;;;;;;;;;;;;;;;6.89;100.00;99531.72;6163171;23;19912;-92
2023/06/01 15:35:52;;;;;;;;;;;;;;;6.90;100.00;99543.13;6161423;23;19943;-90
2023/06/01 15:38:30;;;;;;;;;;;;;;;;;;;;;
2023/06/01 15:40:56;;;;;;;;;;;;;;;6.85;100.00;99537.16;6187792;23;19995;-93
2023/06/01 15:43:21;;;;;;;;;;;;;;;6.86;100.00;99534.47;6158651;23;20324;-88
2023/06/01 15:45:46;;;;;;;;;;;;;;;6.88;100.00;99534.41;6159920;23;19916;-94
2023/06/01 15:48:19;;;;;;;;;;;;;;;6.92;100.00;99536.03;6158805;23;19955;-93
2023/06/01 15:51:04;;;;;;;;;;;;;;;6.86;100.00;99531.81;6187071;23;19912;-90
2023/06/01 15:53:29;;;;;;;;;;;;;;;6.85;100.00;99537.16;6160598;23;20276;-94
2023/06/01 15:55:55;;;;;;;;;;;;;;;6.93;100.00;99532.50;6160532;23;19912;-94
2023/06/01 15:58:26;;;;;;;;;;;;;;;6.91;100.00;99524.63;6160173;23;19913;-93
2023/06/01 16:00:54;;;;;;;;;;;;;;;6.95;100.00;99521.91;6161922;23;19920;-94
2023/06/01 16:03:22;;;;;;;;;;;;;;;6.94;100.00;99528.97;6160850;23;20339;-95
2023/06/01 16:05:50;;;;;;;;;;;;;;;6.95;100.00;99530.66;6160196;23;19924;-94
2023/06/01 16:08:23;;;;;;;;;;;;;;;7.02;100.00;99531.31;6160294;23;19912;-95
2023/06/01 16:10:48;;;;;;;;;;;;;;;6.95;100.00;99524.53;6160659;23;19961;-94
2023/06/01 16:13:34;;;;;;;;;;;;;;;;;;;;;
2023/06/01 16:16:05;;;;;;;;;;;;;;;7.06;100.00;99525.06;6187095;23;19995;-91
2023/06/01 16:18:48;;;;;;;;;;;;;;;7.02;100.00;99523.41;6160221;23;19919;-92
2023/06/01 16:21:14;;;;;;;;;;;;;;;6.99;100.00;99516.50;6160282;23;19916;-93
2023/06/01 16:23:44;;;;;;;;;;;;;;;7.15;100.00;99521.22;6186429;23;19913;-93
2023/06/01 16:26:33;;;;;;;;;;;;;;;7.14;100.00;99519.53;6162732;23;19913;-92
2023/06/01 16:28:59;;;;;;;;;;;;;;;7.06;100.00;99509.25;6114767;23;19920;-92
2023/06/01 16:31:30;;;;;;;;;;;;;;;6.97;100.00;99514.81;6160371;23;19913;-95
2023/06/01 16:33:55;;;;;;;;;;;;;;;6.97;100.00;99510.38;6159668;23;20391;-93
2023/06/01 16:40:18;;;;;;;;;;;;;;;;;;;;;
2023/06/01 16:42:46;;;;;;;;;;;;;;;6.97;100.00;99513.03;6149203;23;20395;-95
2023/06/01 16:45:15;;;;;;;;;;;;;;;6.91;100.00;99514.09;6158579;23;19920;-95
2023/06/01 16:47:40;;;;;;;;;;;;;;;6.92;100.00;99504.41;6158462;23;19912;-95
2023/06/01 16:50:05;;;;;;;;;;;;;;;6.88;100.00;99508.06;6165525;23;19980;-95
2023/06/01 16:52:31;;;;;;;;;;;;;;;6.89;100.00;99510.66;6165246;23;19912;-92
2023/06/01 16:54:56;;;;;;;;;;;;;;;6.91;100.00;99505.34;6191638;23;20408;-95
2023/06/01 16:57:24;;;;;;;;;;;;;;;6.88;100.00;99508.06;6163207;23;19963;-92
2023/06/01 16:59:58;;;;;;;;;;;;;;;6.85;100.00;99508.16;6162653;23;20299;-96
2023/06/01 17:02:23;;;;;;;;;;;;;;;6.89;100.00;99507.16;6164264;23;19920;-94
2023/06/01 17:04:48;;;;;;;;;;;;;;;6.84;100.00;99511.69;6163624;23;19912;-94
2023/06/01 17:07:22;;;;;;;;;;;;;;;6.90;100.00;99506.25;6194795;23;19912;-94
2023/06/01 17:09:50;;;;;;;;;;;;;;;6.85;100.00;99503.75;6193640;23;19913;-93
2023/06/01 17:12:17;;;;;;;;;;;;;;;6.87;100.00;99506.34;6172790;23;19917;-96
2023/06/01 17:14:46;;;;;;;;;;;;;;;6.86;100.00;99505.50;6167693;23;19958;-95
2023/06/01 17:17:14;;;;;;;;;;;;;;;6.83;100.00;99504.69;6162348;23;19999;-92
2023/06/01 17:20:16;;;;;;;;;;;;;;;6.85;100.00;99508.16;6189792;23;19916;-94
2023/06/01 17:22:42;;;;;;;;;;;;;;;6.91;100.00;99503.56;6163972;23;19912;-95
2023/06/01 17:25:10;;;;;;;;;;;;;;;6.88;100.00;99502.81;6166397;23;19936;-94
2023/06/01 17:27:36;;;;;;;;;;;;;;;6.90;100.00;99504.47;6161454;23;19913;-91
2023/06/01 17:30:01;;;;;;;;;;;;;;;6.85;100.00;99509.03;6162909;23;19916;-93
2023/06/01 17:32:27;;;;;;;;;;;;;;;6.83;100.00;99507.34;6161579;23;19916;-93
2023/06/01 17:34:52;;;;;;;;;;;;;;;6.88;100.00;99508.06;6161674;23;20317;-93
2023/06/01 17:37:17;;;;;;;;;;;;;;;6.92;100.00;99504.41;6161397;23;19916;-93
2023/06/01 17:39:50;;;;;;;;;;;;;;;6.88;100.00;99503.66;6161685;23;19970;-94
2023/06/01 17:42:19;;;;;;;;;;;;;;;6.87;100.00;99501.94;6161841;23;19927;-94
2023/06/01 17:44:51;;;;;;;;;;;;;;;6.86;100.00;99494.97;6164824;23;19920;-95
2023/06/01 17:47:17;;;;;;;;;;;;;;;6.91;100.00;99495.66;6163047;23;20252;-94
2023/06/01 17:49:42;;;;;;;;;;;;;;;6.90;100.00;99495.72;6163667;23;19951;-95
2023/06/01 17:52:10;;;;;;;;;;;;;;;6.91;100.00;99494.81;6163725;23;19909;-95
2023/06/01 17:54:37;;;;;;;;;;;;;;;6.85;100.00;99503.75;6163232;23;19958;-94
2023/06/01 17:57:03;;;;;;;;;;;;;;;6.94;100.00;99507.88;6162905;23;19996;-94
2023/06/01 17:59:31;;;;;;;;;;;;;;;6.92;100.00;99512.31;6163987;23;19994;-94
2023/06/01 18:02:14;;;;;;;;;;;;;;;;;;;;;
2023/06/01 18:04:40;;;;;;;;;;;;;;;6.85;100.00;99513.44;6189094;23;19995;-92
2023/06/01 18:07:05;;;;;;;;;;;;;;;6.81;100.00;99510.06;6189562;23;19912;-90
2023/06/01 18:09:31;;;;;;;;;;;;;;;6.83;100.00;99512.59;6189117;23;19970;-94
2023/06/01 18:12:18;;;;;;;;;;;;;;;6.93;100.00;99515.84;6188513;23;19916;-94
2023/06/01 18:14:46;;;;;;;;;;;;;;;6.78;100.00;99522.44;6162560;23;19921;-92
2023/06/01 18:17:11;;;;;;;;;;;;;;;6.87;100.00;99522.16;6188608;23;19916;-95
2023/06/01 18:20:05;;;;;;;;;;;;;;;6.87;100.00;99517.72;6164233;23;20280;-94
2023/06/01 18:22:44;;;;;;;;;;;;;;;6.90;100.00;99524.69;6164249;23;19923;-94
2023/06/01 18:25:17;;;;;;;;;;;;;;;6.89;100.00;99520.31;6164231;23;20321;-94
2023/06/01 18:27:54;;;;;;;;;;;;;;;6.91;100.00;99532.53;6163573;23;19939;-95
2023/06/01 18:30:30;;;;;;;;;;;;;;;;;;;;;
2023/06/01 18:33:00;;;;;;;;;;;;;;;6.82;100.00;99534.59;6189592;23;19994;-94
2023/06/01 18:35:39;;;;;;;;;;;;;;;6.84;100.00;99527.50;6162185;23;19913;-95
2023/06/01 18:38:06;;;;;;;;;;;;;;;6.77;100.00;99518.09;6164111;23;19916;-94
2023/06/01 18:41:10;;;;;;;;;;;;;;;6.85;100.00;99529.25;6164209;23;19912;-91
2023/06/01 18:43:35;;;;;;;;;;;;;;;6.80;100.00;99525.91;6162084;23;19981;-90
2023/06/01 18:46:37;;;;;;;;;;;;;;;6.76;100.00;99537.44;6162596;23;19916;-93
2023/06/01 18:49:03;;;;;;;;;;;;;;;6.77;100.00;99536.53;6153336;23;19947;-91
2023/06/01 18:51:29;;;;;;;;;;;;;;;6.76;100.00;99532.16;6163240;23;20387;-91
2023/06/01 18:54:07;;;;;;;;;;;;;;;;;;;;;
2023/06/01 18:56:51;;;;;;;;;;;;;;;;;;;;;
2023/06/01 18:59:37;;;;;;;;;;;;;;;6.71;100.00;99535.78;6188964;23;19987;-94
2023/06/01 19:02:37;;;;;;;;;;;;;;;;;;;;;
2023/06/01 19:05:24;;;;;;;;;;;;;;;6.69;100.00;99540.25;6188761;23;20303;-92
2023/06/01 19:08:16;;;;;;;;;;;;;;;;;;;;;
2023/06/01 19:11:03;;;;;;;;;;;;;;;6.71;100.00;99545.47;6190364;23;19999;-92
2023/06/01 19:13:42;;;;;;;;;;;;;;;6.68;100.00;99543.78;6188485;23;19912;-94
2023/06/01 19:16:39;;;;;;;;;;;;;;;6.71;100.00;99543.69;6163718;23;20370;-94
2023/06/01 19:19:09;;;;;;;;;;;;;;;6.64;100.00;99542.16;6157418;23;19916;-94
2023/06/01 19:21:35;;;;;;;;;;;;;;;6.65;100.00;99546.53;6160213;23;19920;-93
2023/06/01 19:24:00;;;;;;;;;;;;;;;6.64;100.00;99555.31;6160084;23;19919;-93
2023/06/01 19:26:27;;;;;;;;;;;;;;;6.67;100.00;99557.00;6159660;23;19916;-93
2023/06/01 19:28:59;;;;;;;;;;;;;;;6.67;100.00;99560.50;6184393;23;20329;-93
2023/06/01 19:31:25;;;;;;;;;;;;;;;6.67;100.00;99563.13;6159886;23;19915;-93
2023/06/01 19:33:50;;;;;;;;;;;;;;;6.65;100.00;99564.06;6160036;23;19912;-94
2023/06/01 19:36:35;;;;;;;;;;;;;;;6.61;100.00;99562.47;6159886;23;19958;-94
2023/06/01 19:39:00;;;;;;;;;;;;;;;6.63;100.00;99571.16;6159315;23;19920;-94
2023/06/01 19:41:26;;;;;;;;;;;;;;;6.62;100.00;99575.59;6159839;23;19912;-95
2023/06/01 19:43:51;;;;;;;;;;;;;;;6.65;100.00;99574.59;6158634;23;19919;-90
2023/06/01 19:46:25;;;;;;;;;;;;;;;6.66;100.00;99571.94;6159727;23;19995;-91
2023/06/01 19:48:51;;;;;;;;;;;;;;;6.64;100.00;99576.38;6159644;23;19938;-94
2023/06/01 19:51:18;;;;;;;;;;;;;;;6.64;100.00;99584.28;6185554;23;19983;-92
2023/06/01 19:53:45;;;;;;;;;;;;;;;6.67;100.00;99580.69;6184759;23;19921;-89
2023/06/01 19:56:18;;;;;;;;;;;;;;;6.70;100.00;99584.09;6185722;23;19979;-91
2023/06/01 19:58:43;;;;;;;;;;;;;;;6.65;100.00;99587.78;6158615;23;19923;-91
2023/06/01 20:01:17;;;;;;;;;;;;;;;6.60;100.00;99595.81;6160208;23;19912;-92
2023/06/01 20:03:43;;;;;;;;;;;;;;;6.61;100.00;99600.19;6160118;23;19916;-90
2023/06/01 20:06:16;;;;;;;;;;;;;;;6.62;100.00;99604.53;6159634;23;19919;-92
2023/06/01 20:08:51;;;;;;;;;;;;;;;6.63;100.00;99603.63;6159374;23;19918;-92
2023/06/01 20:11:21;;;;;;;;;;;;;;;6.60;100.00;99606.34;6159433;23;19938;-92
2023/06/01 20:13:52;;;;;;;;;;;;;;;6.58;100.00;99605.53;6185297;23;19962;-93
2023/06/01 20:16:17;;;;;;;;;;;;;;;6.62;100.00;99617.72;6185535;23;19952;-91
2023/06/01 20:18:48;;;;;;;;;;;;;;;6.62;100.00;99611.56;6186345;23;19917;-92
2023/06/01 20:21:27;;;;;;;;;;;;;;;6.66;100.00;99618.47;6158622;23;19963;-91
2023/06/01 20:24:18;;;;;;;;;;;;;;;6.65;100.00;99611.47;6159115;23;19912;-90
2023/06/01 20:26:49;;;;;;;;;;;;;;;6.67;100.00;99615.78;6151652;23;19920;-92
2023/06/01 20:29:51;;;;;;;;;;;;;;;6.65;100.00;99617.63;6157580;23;20321;-91
2023/06/01 20:35:10;;;;;;;;;;;;;;;6.64;100.00;99620.31;6123935;23;19927;-90
2023/06/01 20:38:07;;;;;;;;;;;;;;;6.63;100.00;99616.78;6158874;23;19919;-91
2023/06/01 20:40:55;;;;;;;;;;;;;;;6.60;100.00;99614.22;6185452;23;19913;-91
2023/06/01 20:43:25;;;;;;;;;;;;;;;6.63;100.00;99619.41;6158082;23;19918;-93
2023/06/01 20:46:09;;;;;;;;;;;;;;;6.64;100.00;99629.03;6159712;23;20268;-91
2023/06/01 20:48:40;;;;;;;;;;;;;;;6.61;100.00;99629.13;6158678;23;19974;-91
2023/06/01 20:51:06;;;;;;;;;;;;;;;6.60;100.00;99631.81;6159219;23;19916;-94
2023/06/01 20:53:31;;;;;;;;;;;;;;;6.60;100.00;99627.41;6162062;23;19939;-89
2023/06/01 20:56:22;;;;;;;;;;;;;;;6.59;100.00;99633.59;6161002;23;19912;-94
2023/06/01 20:58:47;;;;;;;;;;;;;;;6.54;100.00;99631.09;6156240;23;19919;-92
2023/06/01 21:01:35;;;;;;;;;;;;;;;6.56;100.00;99636.31;6162314;23;19913;-92
2023/06/01 21:04:12;;;;;;;;;;;;;;;6.53;100.00;99636.41;6161403;23;19916;-91
2023/06/01 21:06:50;;;;;;;;;;;;;;;;;;;;;
2023/06/01 21:09:18;;;;;;;;;;;;;;;6.52;100.00;99642.56;6191072;23;19948;-90
2023/06/01 21:11:47;;;;;;;;;;;;;;;6.53;100.00;99641.66;6159865;23;20010;-93
2023/06/01 21:14:13;;;;;;;;;;;;;;;6.51;100.00;99646.09;6159783;23;19912;-93
2023/06/01 21:16:38;;;;;;;;;;;;;;;6.45;100.00;99646.28;6161236;23;19919;-92
2023/06/01 21:19:06;;;;;;;;;;;;;;;6.51;100.00;99652.25;6161116;23;19921;-93
2023/06/01 21:21:36;;;;;;;;;;;;;;;6.54;100.00;99661.78;6160817;23;19998;-90
2023/06/01 21:24:02;;;;;;;;;;;;;;;6.57;100.00;99660.84;6187560;23;19923;-91
2023/06/01 21:26:27;;;;;;;;;;;;;;;6.57;100.00;99651.19;6160609;23;19912;-89
2023/06/01 21:28:53;;;;;;;;;;;;;;;6.51;100.00;99651.34;6186353;23;19944;-91
2023/06/01 21:31:21;;;;;;;;;;;;;;;6.55;100.00;99648.59;6162643;23;19908;-91
2023/06/01 21:33:46;;;;;;;;;;;;;;;6.54;100.00;99648.63;6162380;23;19913;-92
2023/06/01 21:36:12;;;;;;;;;;;;;;;6.52;100.00;99642.56;6161732;23;19950;-91